2 de julho de 2022

Hora Código Clima Temp. Visibilidade Tecto Vento METAR/SPECI
10:30 da tarde
V
68 °F 6¼ mi+ - 350° 350° 10 kt METAR LFBC 022030Z AUTO 35010KT CAVOK 20/13 Q1019 NOSIG
10:00 da tarde
V
68 °F 6¼ mi+ - 340° 340° 10 kt METAR LFBC 022000Z AUTO 34010KT CAVOK 20/13 Q1019 NOSIG
9:30 da tarde
V
70 °F 6¼ mi+ - 340° 340° 11 kt METAR LFBC 021930Z AUTO 34011KT CAVOK 21/13 Q1019 NOSIG
9:00 da tarde
V
72 °F 6¼ mi+ - 340° 340° 12 kt METAR LFBC 021900Z AUTO 34012KT CAVOK 22/13 Q1019 NOSIG
8:30 da tarde
V
73 °F 6¼ mi+ - 340° 340° 12 kt METAR LFBC 021830Z AUTO 34012KT CAVOK 23/14 Q1018 NOSIG
8:00 da tarde
V
75 °F 6¼ mi+ - 340° 340° 11 kt METAR LFBC 021800Z AUTO 34011KT CAVOK 24/14 Q1018 NOSIG
7:30 da tarde
V
77 °F 6¼ mi+ - 330° 330° 10 kt METAR LFBC 021730Z AUTO 33010KT CAVOK 25/14 Q1018 NOSIG
7:00 da tarde
V
79 °F 6¼ mi+ - 330° 330° 11 kt METAR LFBC 021700Z AUTO 33011KT CAVOK 26/14 Q1018 NOSIG
6:30 da tarde
V
81 °F 6¼ mi+ - 330° 330° 11 kt METAR LFBC 021630Z AUTO 33011KT CAVOK 27/14 Q1018 NOSIG
6:00 da tarde
V
81 °F 6¼ mi+ - 310° 310° 10 kt METAR LFBC 021600Z AUTO 31010KT CAVOK 27/14 Q1018 NOSIG
5:30 da tarde
V
81 °F 6¼ mi+ - 320° 320° 10 kt METAR LFBC 021530Z AUTO 32010KT CAVOK 27/14 Q1018 NOSIG
5:00 da tarde
V
81 °F 6¼ mi+ - 320° 320° 10 kt METAR LFBC 021500Z AUTO 32010KT 290V350 CAVOK 27/13 Q1018 NOSIG
4:30 da tarde
V
81 °F 6¼ mi+ - 320° 320° 10 kt METAR LFBC 021430Z AUTO 32010KT CAVOK 27/13 Q1018 NOSIG
4:00 da tarde
V
84 °F 6¼ mi+ - 290° 290° 9 kt METAR LFBC 021400Z AUTO 29009KT 240V350 CAVOK 29/14 Q1018 NOSIG
3:30 da tarde
V
86 °F 6¼ mi+ - 060° 060° 3 kt METAR LFBC 021330Z AUTO 06003KT 010V130 CAVOK 30/09 Q1018 NOSIG
3:00 da tarde
V
84 °F 6¼ mi+ - Var Var 4 kt METAR LFBC 021300Z AUTO VRB04KT CAVOK 29/09 Q1018 NOSIG
2:30 da tarde
V
84 °F 6¼ mi+ - Var Var 4 kt METAR LFBC 021230Z AUTO VRB04KT CAVOK 29/09 Q1018 NOSIG
2:00 da tarde
V
82 °F 6¼ mi+ - 050° 050° 4 kt METAR LFBC 021200Z AUTO 05004KT 350V130 CAVOK 28/09 Q1018 NOSIG
1:30 da tarde
V
81 °F 6¼ mi+ - 040° 040° 7 kt METAR LFBC 021130Z AUTO 04007KT 020V100 CAVOK 27/09 Q1018 NOSIG
1:00 da tarde
V
81 °F 6¼ mi+ - 050° 050° 5 kt METAR LFBC 021100Z AUTO 05005KT 320V110 CAVOK 27/09 Q1019 NOSIG
12:30 da tarde
V
79 °F 6¼ mi+ - 050° 050° 7 kt METAR LFBC 021030Z AUTO 05007KT 010V100 CAVOK 26/09 Q1019 NOSIG
12:00 da tarde
V
79 °F 6¼ mi+ - 080° 080° 7 kt METAR LFBC 021000Z AUTO 08007KT 040V130 CAVOK 26/10 Q1019 NOSIG
11:30 da manhã
V
77 °F 6¼ mi+ - 070° 070° 7 kt METAR LFBC 020930Z AUTO 07007KT 040V110 CAVOK 25/10 Q1019 NOSIG
11:00 da manhã
V
75 °F 6¼ mi+ - 090° 090° 6 kt METAR LFBC 020900Z AUTO 09006KT 040V130 CAVOK 24/11 Q1019 NOSIG
10:30 da manhã
V
73 °F 6¼ mi+ - 080° 080° 7 kt METAR LFBC 020830Z AUTO 08007KT 050V110 CAVOK 23/11 Q1019 NOSIG
10:00 da manhã
V
72 °F 6¼ mi+ - 080° 080° 6 kt METAR LFBC 020800Z AUTO 08006KT 050V110 CAVOK 22/11 Q1019 NOSIG
9:30 da manhã
V
68 °F 6¼ mi+ - 090° 090° 5 kt METAR LFBC 020730Z AUTO 09005KT 040V120 CAVOK 20/11 Q1019 NOSIG
9:00 da manhã
V
64 °F 6¼ mi+ - 080° 080° 4 kt METAR LFBC 020700Z AUTO 08004KT 040V100 CAVOK 18/11 Q1020 NOSIG
8:30 da manhã
V
59 °F 6¼ mi+ - Var Var 3 kt METAR LFBC 020630Z AUTO VRB03KT CAVOK 15/11 Q1020 NOSIG
8:00 da manhã
V
57 °F 6¼ mi+ - Var Var 2 kt METAR LFBC 020600Z AUTO VRB02KT CAVOK 14/11 Q1019 NOSIG
7:30 da manhã
V
54 °F 6¼ mi+ - 010° 010° 3 kt METAR LFBC 020530Z AUTO 01003KT CAVOK 12/11 Q1019 NOSIG
7:00 da manhã
V
52 °F 6¼ mi+ - 010° 010° 3 kt METAR LFBC 020500Z AUTO 01003KT CAVOK 11/10 Q1019 NOSIG
6:30 da manhã
V
52 °F 6¼ mi+ - 010° 010° 3 kt METAR LFBC 020430Z AUTO 01003KT CAVOK 11/10 Q1019 NOSIG
6:00 da manhã
V
52 °F 6¼ mi+ - 010° 010° 3 kt METAR LFBC 020400Z AUTO 01003KT CAVOK 11/10 Q1019 NOSIG
5:30 da manhã
V
54 °F 6¼ mi+ - 010° 010° 3 kt METAR LFBC 020330Z AUTO 01003KT CAVOK 12/10 Q1019 NOSIG
5:00 da manhã
V
54 °F 6¼ mi+ - 360° 360° 3 kt METAR LFBC 020300Z AUTO 36003KT CAVOK 12/11 Q1019 NOSIG
4:30 da manhã
V
54 °F 6¼ mi+ - 010° 010° 3 kt METAR LFBC 020230Z AUTO 01003KT CAVOK 12/10 Q1019 NOSIG
4:00 da manhã
V
55 °F 6¼ mi+ - 010° 010° 3 kt METAR LFBC 020200Z AUTO 01003KT CAVOK 13/11 Q1020 NOSIG
3:30 da manhã
V
55 °F 6¼ mi+ - 020° 020° 3 kt METAR LFBC 020130Z AUTO 02003KT CAVOK 13/11 Q1020 NOSIG
3:00 da manhã
V
55 °F 6¼ mi+ - 360° 360° 3 kt METAR LFBC 020100Z AUTO 36003KT CAVOK 13/11 Q1020 NOSIG
2:30 da manhã
V
57 °F 6¼ mi+ - 010° 010° 4 kt METAR LFBC 020030Z AUTO 01004KT CAVOK 14/11 Q1020 NOSIG
2:00 da manhã
V
57 °F 6¼ mi+ - 010° 010° 5 kt METAR LFBC 020000Z AUTO 01005KT CAVOK 14/11 Q1020 NOSIG
1:30 da manhã
V
59 °F 6¼ mi+ - 010° 010° 5 kt METAR LFBC 012330Z AUTO 01005KT CAVOK 15/12 Q1020 NOSIG
1:00 da manhã
V
59 °F 6¼ mi+ - 360° 360° 5 kt METAR LFBC 012300Z AUTO 36005KT CAVOK 15/12 Q1021 NOSIG
12:30 da manhã
V
61 °F 6¼ mi+ - 360° 360° 5 kt METAR LFBC 012230Z AUTO 36005KT CAVOK 16/12 Q1021 NOSIG
12:00 da manhã
V
61 °F 6¼ mi+ - 360° 360° 5 kt METAR LFBC 012200Z AUTO 36005KT CAVOK 16/11 Q1021 NOSIG

1 de julho de 2022

Hora Código Clima Temp. Visibilidade Tecto Vento METAR/SPECI
11:30 da tarde
V
63 °F 6¼ mi+ - 020° 020° 5 kt METAR LFBC 012130Z AUTO 02005KT CAVOK 17/11 Q1020 NOSIG
11:00 da tarde
V
63 °F 6¼ mi+ - 350° 350° 4 kt METAR LFBC 012100Z AUTO 35004KT CAVOK 17/12 Q1020 NOSIG
10:30 da tarde
V
66 °F 6¼ mi+ - 360° 360° 5 kt METAR LFBC 012030Z AUTO 36005KT CAVOK 19/12 Q1020 NOSIG
10:00 da tarde
V
66 °F 6¼ mi+ - 360° 360° 7 kt METAR LFBC 012000Z AUTO 36007KT CAVOK 19/12 Q1020 NOSIG
9:30 da tarde
V
68 °F 6¼ mi+ - 350° 350° 7 kt METAR LFBC 011930Z AUTO 35007KT CAVOK 20/12 Q1020 NOSIG
9:00 da tarde
V
70 °F 6¼ mi+ - 360° 360° 9 kt METAR LFBC 011900Z AUTO 36009KT CAVOK 21/12 Q1020 NOSIG
8:30 da tarde
V
72 °F 6¼ mi+ - 360° 360° 11 kt METAR LFBC 011830Z AUTO 36011KT CAVOK 22/11 Q1019 NOSIG
8:00 da tarde
V
72 °F 6¼ mi+ - 350° 350° 10 kt METAR LFBC 011800Z AUTO 35010KT CAVOK 22/12 Q1019 NOSIG
7:30 da tarde
V
73 °F 6¼ mi+ - 340° 340° 10 kt METAR LFBC 011730Z AUTO 34010KT 310V010 CAVOK 23/12 Q1019 NOSIG
7:00 da tarde
V
72 °F 6¼ mi+ - 330° 330° 11 kt METAR LFBC 011700Z AUTO 33011KT 300V360 CAVOK 22/12 Q1020 NOSIG
6:30 da tarde
V
73 °F 6¼ mi+ - 340° 340° 10 kt METAR LFBC 011630Z AUTO 34010KT 290V010 CAVOK 23/12 Q1020 NOSIG
6:00 da tarde
V
73 °F 6¼ mi+ - 310° 310° 11 kt METAR LFBC 011600Z AUTO 31011KT 280V340 9999 FEW047 23/12 Q1020 NOSIG
5:30 da tarde
V
73 °F 6¼ mi+ - 330° 330° 9 kt METAR LFBC 011530Z AUTO 33009KT 270V360 9999 FEW047 SCT054 23/12 Q1020 NOSIG
5:00 da tarde
V
73 °F 6¼ mi+ 5.200 ft 330° 330° 8 kt METAR LFBC 011500Z AUTO 33008KT 290V020 9999 SCT045 BKN052 23/12 Q1020 NOSIG
4:30 da tarde
V
73 °F 6¼ mi+ 5.200 ft 330° 330° 8 kt METAR LFBC 011430Z AUTO 33008KT 290V020 9999 FEW044 BKN052 23/13 Q1020 NOSIG
4:00 da tarde
V
72 °F 6¼ mi+ - 330° 330° 7 kt METAR LFBC 011400Z AUTO 33007KT 260V060 9999 FEW046 SCT056 22/11 Q1020 NOSIG
3:30 da tarde
V
70 °F 6¼ mi+ 5.400 ft 330° 330° 8 kt METAR LFBC 011330Z AUTO 33008KT 280V360 9999 FEW042 BKN054 21/12 Q1020 NOSIG
3:00 da tarde
V
72 °F 6¼ mi+ - Var Var 3 kt METAR LFBC 011300Z AUTO VRB03KT CAVOK 22/10 Q1020 NOSIG
2:30 da tarde
V
72 °F 6¼ mi+ - Var Var 5 kt METAR LFBC 011230Z AUTO VRB05KT CAVOK 22/10 Q1021 NOSIG
2:00 da tarde
V
70 °F 6¼ mi+ 5.800 ft 230° 230° 7 kt METAR LFBC 011200Z AUTO 23007KT 9999 FEW046 OVC058 21/12 Q1021 BECMG 30010KT
1:30 da tarde
V
72 °F 6¼ mi+ 5.800 ft 250° 250° 7 kt METAR LFBC 011130Z AUTO 25007KT 200V290 9999 FEW045 BKN058 22/12 Q1021 NOSIG
1:00 da tarde
V
72 °F 6¼ mi+ - 220° 220° 6 kt METAR LFBC 011100Z AUTO 22006KT 180V270 CAVOK 22/11 Q1021 NOSIG
12:30 da tarde
V
70 °F 6¼ mi+ - 180° 180° 5 kt METAR LFBC 011030Z AUTO 18005KT 140V260 CAVOK 21/10 Q1021 NOSIG
12:00 da tarde
V
70 °F 6¼ mi+ - 200° 200° 6 kt METAR LFBC 011000Z AUTO 20006KT 160V250 9999 FEW045 SCT064 21/10 Q1021 NOSIG
11:30 da manhã
V
70 °F 6¼ mi+ - Var Var 3 kt METAR LFBC 010930Z AUTO VRB03KT 9999 FEW034 21/10 Q1021 NOSIG
11:00 da manhã
V
68 °F 6¼ mi+ 3.700 ft Var Var 3 kt METAR LFBC 010900Z AUTO VRB03KT 9999 SCT029 BKN037 20/11 Q1021 NOSIG
10:30 da manhã
M
68 °F 6¼ mi+ 2.700 ft Var Var 2 kt METAR LFBC 010830Z AUTO VRB02KT 9999 BKN027 20/12 Q1021 NOSIG
10:00 da manhã
V
66 °F 6¼ mi+ - Var Var 3 kt METAR LFBC 010800Z AUTO VRB03KT CAVOK 19/12 Q1021 NOSIG
9:30 da manhã
V
63 °F 6¼ mi+ - Var Var 2 kt METAR LFBC 010730Z AUTO VRB02KT CAVOK 17/13 Q1021 NOSIG
9:00 da manhã
V
61 °F 6¼ mi+ - Var Var 1 kt METAR LFBC 010700Z AUTO VRB01KT CAVOK 16/12 Q1021 NOSIG
8:30 da manhã
V
57 °F 6¼ mi+ - Var Var 2 kt METAR LFBC 010630Z AUTO VRB02KT CAVOK 14/12 Q1021 NOSIG
8:00 da manhã
V
55 °F 6¼ mi+ - Var Var 2 kt METAR LFBC 010600Z AUTO VRB02KT CAVOK 13/12 Q1021 NOSIG
7:30 da manhã
V
52 °F 6¼ mi+ - 080° 080° 3 kt METAR LFBC 010530Z AUTO 08003KT 030V120 CAVOK 11/11 Q1021 NOSIG
7:00 da manhã
V
52 °F 6¼ mi+ - Var 000° 0 kt METAR LFBC 010500Z AUTO 00000KT CAVOK 11/11 Q1021 NOSIG
6:30 da manhã
V
52 °F 6¼ mi+ - Var Var 1 kt METAR LFBC 010430Z AUTO VRB01KT CAVOK 11/10 Q1020
6:00 da manhã
V
54 °F 6¼ mi+ 4.600 ft 110° 110° 3 kt METAR LFBC 010400Z AUTO 11003KT 9999 SCT034 BKN046 BKN068 12/11 Q1020
5:30 da manhã
V
54 °F 6¼ mi+ 3.500 ft 110° 110° 3 kt METAR LFBC 010330Z AUTO 11003KT 9999 BKN035 BKN046 OVC062 12/11 Q1020
5:00 da manhã
V
52 °F 6¼ mi+ - Var Var 3 kt METAR LFBC 010300Z AUTO VRB03KT CAVOK 11/10 Q1020
4:30 da manhã
V
54 °F 6¼ mi+ 3.800 ft 160° 160° 3 kt METAR LFBC 010230Z AUTO 16003KT 9999 BKN038 12/11 Q1020
4:00 da manhã
V
55 °F 6¼ mi+ 6.200 ft 030° 030° 3 kt METAR LFBC 010200Z AUTO 03003KT 010V070 9999 FEW036 BKN062 13/12 Q1020
3:30 da manhã
V
54 °F 6¼ mi+ 5.800 ft Var Var 2 kt METAR LFBC 010130Z AUTO VRB02KT 9999 FEW045 BKN058 12/10 Q1020
3:00 da manhã
V
55 °F 6¼ mi+ 4.300 ft 130° 130° 5 kt METAR LFBC 010100Z AUTO 13005KT 9999 BKN043 OVC052 13/11 Q1020
2:30 da manhã
V
57 °F 6¼ mi+ 4.900 ft 090° 090° 3 kt METAR LFBC 010030Z AUTO 09003KT 9999 FEW037 BKN049 OVC066 14/13 Q1020
2:00 da manhã
V
57 °F 6¼ mi+ 3.500 ft 340° 340° 3 kt METAR LFBC 010000Z AUTO 34003KT 9999 OVC035 14/13 Q1020
1:30 da manhã
V
55 °F 6¼ mi+ 3.500 ft 150° 150° 3 kt METAR LFBC 302330Z AUTO 15003KT 9999 BKN035 BKN060 13/12 Q1020
1:00 da manhã
V
57 °F 6¼ mi+ 4.500 ft Var 000° 0 kt METAR LFBC 302300Z AUTO 00000KT 9999 FEW036 BKN045 OVC060 14/12 Q1020
12:30 da manhã
V
57 °F 6¼ mi+ 5.800 ft Var 000° 0 kt METAR LFBC 302230Z AUTO 00000KT 9999 SCT046 BKN058 14/11 Q1020
12:00 da manhã
V
55 °F 6¼ mi+ - Var 000° 0 kt METAR LFBC 302200Z AUTO 00000KT CAVOK 13/11 Q1020

30 de junho de 2022

Hora Código Clima Temp. Visibilidade Tecto Vento METAR/SPECI
11:30 da tarde
V
57 °F 6¼ mi+ - 300° 300° 2 kt METAR LFBC 302130Z AUTO 30002KT CAVOK 14/11 Q1020
11:00 da tarde
V
59 °F 6¼ mi+ - 300° 300° 2 kt METAR LFBC 302100Z AUTO 30002KT CAVOK 15/11 Q1020
10:30 da tarde
V
61 °F 6¼ mi+ - 290° 290° 3 kt METAR LFBC 302030Z AUTO 29003KT 9999 SCT037 SCT046 16/11 Q1020
10:00 da tarde
V
61 °F 6¼ mi+ 5.800 ft 280° 280° 2 kt METAR LFBC 302000Z AUTO 28002KT 9999 FEW042 BKN058 16/11 Q1019
9:30 da tarde
V
63 °F 6¼ mi+ - 280° 280° 3 kt METAR LFBC 301930Z AUTO 28003KT 250V310 CAVOK 17/11 Q1019
9:00 da tarde
V
63 °F 6¼ mi+ - 290° 290° 4 kt METAR LFBC 301900Z AUTO 29004KT CAVOK 17/10 Q1019
8:30 da tarde
V
64 °F 6¼ mi+ - 310° 310° 7 kt METAR LFBC 301830Z AUTO 31007KT CAVOK 18/10 Q1018 NOSIG
8:00 da tarde
V
66 °F 6¼ mi+ - 310° 310° 8 kt METAR LFBC 301800Z AUTO 31008KT 270V330 CAVOK 19/10 Q1018 NOSIG
7:30 da tarde
V
66 °F 6¼ mi+ - 310° 310° 8 kt METAR LFBC 301730Z AUTO 31008KT 270V350 9999 FEW036 19/11 Q1018 NOSIG
7:00 da tarde
V
68 °F 6¼ mi+ - 310° 310° 10 kt METAR LFBC 301700Z AUTO 31010KT 270V330 9999 FEW036 20/11 Q1018 NOSIG
6:30 da tarde
V
68 °F 6¼ mi+ - 310° 310° 10 kt METAR LFBC 301630Z AUTO 31010KT 270V350 9999 FEW037 20/11 Q1018 NOSIG
6:00 da tarde
V
66 °F 6¼ mi+ - 320° 320° 9 kt METAR LFBC 301600Z AUTO 32009KT 270V010 9999 FEW032 SCT062 19/11 Q1018 NOSIG
5:30 da tarde
V
66 °F 6¼ mi+ 4.000 ft 330° 330° 10 kt METAR LFBC 301530Z AUTO 33010KT 300V360 9999 SCT034 BKN040 BKN050 19/12 Q1018 NOSIG
5:00 da tarde
V
66 °F 6¼ mi+ 4.700 ft 300° 300° 7 kt METAR LFBC 301500Z AUTO 30007KT 260V350 9999 SCT035/// BKN047/// OVC064/// //////CB 19/12 Q1018 BECMG SCT030 SCT040
Dados mais antigos

Baixe nosso aplicativo

Fácil acesso a todas as condições meteorológicas da aviação no seu celular e no seu tablet.
Com muitas características não disponíveis no site, como suporte offline e uma lista pessoal de aeroportos.

Nós e terceiros acompanhamos seu comportamento na internet em nosso site com cookies. Se você continuar, nós assumimos que você concorda com nossa política de cookies. Saiba mais